sensor_id;sensor_type;location;lat;lon;timestamp;temperature;humidity
5172;DHT22;2605;49.770;9.868;2022-11-15T00:00:13;10.50;99.90
5172;DHT22;2605;49.770;9.868;2022-11-15T00:02:39;10.50;99.90
5172;DHT22;2605;49.770;9.868;2022-11-15T00:05:04;10.50;99.90
5172;DHT22;2605;49.770;9.868;2022-11-15T00:07:30;10.50;99.90
5172;DHT22;2605;49.770;9.868;2022-11-15T00:09:56;10.50;99.90
5172;DHT22;2605;49.770;9.868;2022-11-15T00:12:21;10.40;99.90
5172;DHT22;2605;49.770;9.868;2022-11-15T00:14:47;10.40;99.90
5172;DHT22;2605;49.770;9.868;2022-11-15T00:17:12;10.50;99.90
5172;DHT22;2605;49.770;9.868;2022-11-15T00:19:37;10.50;99.90
5172;DHT22;2605;49.770;9.868;2022-11-15T00:22:03;10.50;99.90
5172;DHT22;2605;49.770;9.868;2022-11-15T00:24:28;10.50;99.90
5172;DHT22;2605;49.770;9.868;2022-11-15T00:26:54;10.50;99.90
5172;DHT22;2605;49.770;9.868;2022-11-15T00:29:19;10.50;99.90
5172;DHT22;2605;49.770;9.868;2022-11-15T00:31:45;10.40;99.90
5172;DHT22;2605;49.770;9.868;2022-11-15T00:34:10;10.40;99.90
5172;DHT22;2605;49.770;9.868;2022-11-15T00:36:36;10.40;99.90
5172;DHT22;2605;49.770;9.868;2022-11-15T00:39:04;10.40;99.90
5172;DHT22;2605;49.770;9.868;2022-11-15T00:41:30;10.40;99.90
5172;DHT22;2605;49.770;9.868;2022-11-15T00:43:56;10.30;99.90
5172;DHT22;2605;49.770;9.868;2022-11-15T00:46:21;10.30;99.90
5172;DHT22;2605;49.770;9.868;2022-11-15T00:48:47;10.20;99.90
5172;DHT22;2605;49.770;9.868;2022-11-15T00:51:12;10.20;99.90
5172;DHT22;2605;49.770;9.868;2022-11-15T00:53:38;10.20;99.90
5172;DHT22;2605;49.770;9.868;2022-11-15T00:56:04;10.10;99.90
5172;DHT22;2605;49.770;9.868;2022-11-15T00:58:30;10.10;99.90
5172;DHT22;2605;49.770;9.868;2022-11-15T01:00:55;10.10;99.90
5172;DHT22;2605;49.770;9.868;2022-11-15T01:03:21;10.10;99.90
5172;DHT22;2605;49.770;9.868;2022-11-15T01:05:46;10.00;99.90
5172;DHT22;2605;49.770;9.868;2022-11-15T01:08:16;10.00;99.90
5172;DHT22;2605;49.770;9.868;2022-11-15T01:10:42;9.90;99.90
5172;DHT22;2605;49.770;9.868;2022-11-15T01:13:08;9.90;99.90
5172;DHT22;2605;49.770;9.868;2022-11-15T01:15:33;9.80;99.90
5172;DHT22;2605;49.770;9.868;2022-11-15T01:17:59;9.80;99.90
5172;DHT22;2605;49.770;9.868;2022-11-15T01:20:24;9.70;99.90
5172;DHT22;2605;49.770;9.868;2022-11-15T01:22:50;9.70;99.90
5172;DHT22;2605;49.770;9.868;2022-11-15T01:25:16;9.70;99.90
5172;DHT22;2605;49.770;9.868;2022-11-15T01:27:41;9.60;99.90
5172;DHT22;2605;49.770;9.868;2022-11-15T01:30:07;9.60;99.90
5172;DHT22;2605;49.770;9.868;2022-11-15T01:32:33;9.50;99.90
5172;DHT22;2605;49.770;9.868;2022-11-15T01:34:59;9.50;99.90
5172;DHT22;2605;49.770;9.868;2022-11-15T01:37:24;9.50;99.90
5172;DHT22;2605;49.770;9.868;2022-11-15T01:39:50;9.40;99.90
5172;DHT22;2605;49.770;9.868;2022-11-15T01:42:15;9.30;99.90
5172;DHT22;2605;49.770;9.868;2022-11-15T01:44:44;9.30;99.90
5172;DHT22;2605;49.770;9.868;2022-11-15T01:47:33;9.30;99.90
5172;DHT22;2605;49.770;9.868;2022-11-15T01:50:15;9.30;99.90
5172;DHT22;2605;49.770;9.868;2022-11-15T01:52:42;9.30;99.90
5172;DHT22;2605;49.770;9.868;2022-11-15T01:57:34;9.30;99.90
5172;DHT22;2605;49.770;9.868;2022-11-15T02:00:00;9.20;99.90
5172;DHT22;2605;49.770;9.868;2022-11-15T02:02:28;9.30;99.90
5172;DHT22;2605;49.770;9.868;2022-11-15T02:04:54;9.30;99.90
5172;DHT22;2605;49.770;9.868;2022-11-15T02:07:20;9.30;99.90
5172;DHT22;2605;49.770;9.868;2022-11-15T02:09:47;9.30;99.90
5172;DHT22;2605;49.770;9.868;2022-11-15T02:12:15;9.20;99.90
5172;DHT22;2605;49.770;9.868;2022-11-15T02:14:46;9.20;99.90
5172;DHT22;2605;49.770;9.868;2022-11-15T02:34:17;8.70;99.90
5172;DHT22;2605;49.770;9.868;2022-11-15T02:39:36;8.60;99.90
5172;DHT22;2605;49.770;9.868;2022-11-15T02:42:11;8.40;99.90
5172;DHT22;2605;49.770;9.868;2022-11-15T02:45:01;8.30;99.90
5172;DHT22;2605;49.770;9.868;2022-11-15T02:47:29;8.30;99.90
5172;DHT22;2605;49.770;9.868;2022-11-15T02:50:08;8.10;99.90
5172;DHT22;2605;49.770;9.868;2022-11-15T02:52:35;8.00;99.90
5172;DHT22;2605;49.770;9.868;2022-11-15T02:55:01;7.90;99.90
5172;DHT22;2605;49.770;9.868;2022-11-15T03:00:20;7.90;99.90
5172;DHT22;2605;49.770;9.868;2022-11-15T03:08:19;7.60;99.90
5172;DHT22;2605;49.770;9.868;2022-11-15T03:11:10;7.50;99.90
5172;DHT22;2605;49.770;9.868;2022-11-15T03:17:02;7.40;99.90
5172;DHT22;2605;49.770;9.868;2022-11-15T03:19:46;7.40;99.90
5172;DHT22;2605;49.770;9.868;2022-11-15T03:22:16;7.30;99.90
5172;DHT22;2605;49.770;9.868;2022-11-15T03:24:45;7.20;99.90
5172;DHT22;2605;49.770;9.868;2022-11-15T03:27:15;7.20;99.90
5172;DHT22;2605;49.770;9.868;2022-11-15T03:29:46;7.10;99.90
5172;DHT22;2605;49.770;9.868;2022-11-15T03:32:17;7.00;99.90
5172;DHT22;2605;49.770;9.868;2022-11-15T03:35:02;7.00;99.90
5172;DHT22;2605;49.770;9.868;2022-11-15T03:38:07;7.00;99.90
5172;DHT22;2605;49.770;9.868;2022-11-15T03:40:40;6.90;99.90
5172;DHT22;2605;49.770;9.868;2022-11-15T03:43:30;6.80;99.90
5172;DHT22;2605;49.770;9.868;2022-11-15T03:46:05;6.80;99.90
5172;DHT22;2605;49.770;9.868;2022-11-15T03:48:41;6.70;99.90
5172;DHT22;2605;49.770;9.868;2022-11-15T03:51:08;6.70;99.90
5172;DHT22;2605;49.770;9.868;2022-11-15T03:53:34;6.70;99.90
5172;DHT22;2605;49.770;9.868;2022-11-15T03:56:00;6.70;99.90
5172;DHT22;2605;49.770;9.868;2022-11-15T03:58:25;6.70;99.90
5172;DHT22;2605;49.770;9.868;2022-11-15T04:00:51;6.70;99.90
5172;DHT22;2605;49.770;9.868;2022-11-15T04:03:16;6.70;99.90
5172;DHT22;2605;49.770;9.868;2022-11-15T04:05:42;6.70;99.90
5172;DHT22;2605;49.770;9.868;2022-11-15T04:08:07;6.70;99.90
5172;DHT22;2605;49.770;9.868;2022-11-15T04:10:33;6.60;99.90
5172;DHT22;2605;49.770;9.868;2022-11-15T04:12:58;6.50;99.90
5172;DHT22;2605;49.770;9.868;2022-11-15T04:15:24;6.50;99.90
5172;DHT22;2605;49.770;9.868;2022-11-15T04:17:54;6.50;99.90
5172;DHT22;2605;49.770;9.868;2022-11-15T04:20:26;6.50;99.90
5172;DHT22;2605;49.770;9.868;2022-11-15T04:23:16;6.60;99.90
5172;DHT22;2605;49.770;9.868;2022-11-15T04:26:17;6.60;99.90
5172;DHT22;2605;49.770;9.868;2022-11-15T04:28:46;6.50;99.90
5172;DHT22;2605;49.770;9.868;2022-11-15T04:31:31;6.50;99.90
5172;DHT22;2605;49.770;9.868;2022-11-15T04:33:56;6.50;99.90
5172;DHT22;2605;49.770;9.868;2022-11-15T04:36:22;6.50;99.90
5172;DHT22;2605;49.770;9.868;2022-11-15T04:39:06;6.40;99.90
5172;DHT22;2605;49.770;9.868;2022-11-15T04:41:32;6.40;99.90
5172;DHT22;2605;49.770;9.868;2022-11-15T04:43:57;6.40;99.90
5172;DHT22;2605;49.770;9.868;2022-11-15T04:46:23;6.40;99.90
5172;DHT22;2605;49.770;9.868;2022-11-15T04:48:50;6.40;99.90
5172;DHT22;2605;49.770;9.868;2022-11-15T04:51:16;6.30;99.90
5172;DHT22;2605;49.770;9.868;2022-11-15T04:53:44;6.40;99.90
5172;DHT22;2605;49.770;9.868;2022-11-15T04:56:10;6.30;99.90
5172;DHT22;2605;49.770;9.868;2022-11-15T04:58:35;6.40;99.90
5172;DHT22;2605;49.770;9.868;2022-11-15T05:01:08;6.30;99.90
5172;DHT22;2605;49.770;9.868;2022-11-15T05:03:34;6.40;99.90
5172;DHT22;2605;49.770;9.868;2022-11-15T05:06:18;6.40;99.90
5172;DHT22;2605;49.770;9.868;2022-11-15T05:08:43;6.40;99.90
5172;DHT22;2605;49.770;9.868;2022-11-15T05:11:09;6.40;99.90
5172;DHT22;2605;49.770;9.868;2022-11-15T05:13:34;6.30;99.90
5172;DHT22;2605;49.770;9.868;2022-11-15T05:16:00;6.30;99.90
5172;DHT22;2605;49.770;9.868;2022-11-15T05:18:25;6.30;99.90
5172;DHT22;2605;49.770;9.868;2022-11-15T05:20:51;6.30;99.90
5172;DHT22;2605;49.770;9.868;2022-11-15T05:23:16;6.30;99.90
5172;DHT22;2605;49.770;9.868;2022-11-15T05:25:42;6.40;99.90
5172;DHT22;2605;49.770;9.868;2022-11-15T05:28:08;6.40;99.90
5172;DHT22;2605;49.770;9.868;2022-11-15T05:30:36;6.50;99.90
5172;DHT22;2605;49.770;9.868;2022-11-15T05:33:02;6.50;99.90
5172;DHT22;2605;49.770;9.868;2022-11-15T05:35:39;6.60;99.90
5172;DHT22;2605;49.770;9.868;2022-11-15T05:38:05;6.50;99.90
5172;DHT22;2605;49.770;9.868;2022-11-15T05:40:31;6.50;99.90
5172;DHT22;2605;49.770;9.868;2022-11-15T05:42:57;6.60;99.90
5172;DHT22;2605;49.770;9.868;2022-11-15T05:45:24;6.40;99.90
5172;DHT22;2605;49.770;9.868;2022-11-15T05:47:50;6.40;99.90
5172;DHT22;2605;49.770;9.868;2022-11-15T05:50:18;6.30;99.90
5172;DHT22;2605;49.770;9.868;2022-11-15T05:52:47;6.30;99.90
5172;DHT22;2605;49.770;9.868;2022-11-15T05:55:13;6.30;99.90
5172;DHT22;2605;49.770;9.868;2022-11-15T05:57:39;6.30;99.90
5172;DHT22;2605;49.770;9.868;2022-11-15T06:00:08;6.20;99.90
5172;DHT22;2605;49.770;9.868;2022-11-15T06:02:34;6.30;99.90
5172;DHT22;2605;49.770;9.868;2022-11-15T06:05:00;6.30;99.90
5172;DHT22;2605;49.770;9.868;2022-11-15T06:07:25;6.30;99.90
5172;DHT22;2605;49.770;9.868;2022-11-15T06:09:51;6.30;99.90
5172;DHT22;2605;49.770;9.868;2022-11-15T06:12:16;6.40;99.90
5172;DHT22;2605;49.770;9.868;2022-11-15T06:14:42;6.30;99.90
5172;DHT22;2605;49.770;9.868;2022-11-15T06:17:07;6.40;99.90
5172;DHT22;2605;49.770;9.868;2022-11-15T06:19:33;6.40;99.90
5172;DHT22;2605;49.770;9.868;2022-11-15T06:22:02;6.40;99.90
5172;DHT22;2605;49.770;9.868;2022-11-15T06:24:28;6.50;99.90
5172;DHT22;2605;49.770;9.868;2022-11-15T06:26:53;6.50;99.90
5172;DHT22;2605;49.770;9.868;2022-11-15T06:29:19;6.50;99.90
5172;DHT22;2605;49.770;9.868;2022-11-15T06:31:44;6.60;99.90
5172;DHT22;2605;49.770;9.868;2022-11-15T06:34:10;6.70;99.90
5172;DHT22;2605;49.770;9.868;2022-11-15T06:36:36;6.80;99.90
5172;DHT22;2605;49.770;9.868;2022-11-15T06:39:04;6.90;99.90
5172;DHT22;2605;49.770;9.868;2022-11-15T06:41:30;7.00;99.90
5172;DHT22;2605;49.770;9.868;2022-11-15T06:43:56;7.10;99.90
5172;DHT22;2605;49.770;9.868;2022-11-15T06:46:22;7.20;99.90
5172;DHT22;2605;49.770;9.868;2022-11-15T06:48:50;7.20;99.90
5172;DHT22;2605;49.770;9.868;2022-11-15T06:51:16;7.30;99.90
5172;DHT22;2605;49.770;9.868;2022-11-15T06:53:41;7.40;99.90
5172;DHT22;2605;49.770;9.868;2022-11-15T06:56:07;7.40;99.90
5172;DHT22;2605;49.770;9.868;2022-11-15T06:58:34;7.40;99.90
5172;DHT22;2605;49.770;9.868;2022-11-15T07:01:05;7.50;99.90
5172;DHT22;2605;49.770;9.868;2022-11-15T07:03:31;7.60;99.90
5172;DHT22;2605;49.770;9.868;2022-11-15T07:05:59;7.60;99.90
5172;DHT22;2605;49.770;9.868;2022-11-15T07:08:27;7.70;99.90
5172;DHT22;2605;49.770;9.868;2022-11-15T07:10:53;7.80;99.90
5172;DHT22;2605;49.770;9.868;2022-11-15T07:13:19;7.90;99.90
5172;DHT22;2605;49.770;9.868;2022-11-15T07:15:44;7.90;99.90
5172;DHT22;2605;49.770;9.868;2022-11-15T07:18:10;8.00;99.90
5172;DHT22;2605;49.770;9.868;2022-11-15T07:20:35;8.10;99.90
5172;DHT22;2605;49.770;9.868;2022-11-15T07:23:02;8.20;99.90
5172;DHT22;2605;49.770;9.868;2022-11-15T07:25:28;8.30;99.90
5172;DHT22;2605;49.770;9.868;2022-11-15T07:27:55;8.40;99.90
5172;DHT22;2605;49.770;9.868;2022-11-15T07:30:20;8.40;99.90
5172;DHT22;2605;49.770;9.868;2022-11-15T07:32:46;8.50;99.90
5172;DHT22;2605;49.770;9.868;2022-11-15T07:35:11;8.60;99.90
5172;DHT22;2605;49.770;9.868;2022-11-15T07:37:37;8.60;99.90
5172;DHT22;2605;49.770;9.868;2022-11-15T07:40:03;8.60;99.90
5172;DHT22;2605;49.770;9.868;2022-11-15T07:42:31;8.60;99.90
5172;DHT22;2605;49.770;9.868;2022-11-15T07:45:15;8.60;99.90
5172;DHT22;2605;49.770;9.868;2022-11-15T07:47:45;8.60;99.90
5172;DHT22;2605;49.770;9.868;2022-11-15T07:50:11;8.50;99.90
5172;DHT22;2605;49.770;9.868;2022-11-15T07:52:37;8.50;99.90
5172;DHT22;2605;49.770;9.868;2022-11-15T07:55:02;8.40;99.90
5172;DHT22;2605;49.770;9.868;2022-11-15T07:57:29;8.50;99.90
5172;DHT22;2605;49.770;9.868;2022-11-15T07:59:55;8.50;99.90
5172;DHT22;2605;49.770;9.868;2022-11-15T08:02:20;8.50;99.90
5172;DHT22;2605;49.770;9.868;2022-11-15T08:04:46;8.40;99.90
5172;DHT22;2605;49.770;9.868;2022-11-15T08:07:11;8.40;99.90
5172;DHT22;2605;49.770;9.868;2022-11-15T08:09:37;8.30;99.90
5172;DHT22;2605;49.770;9.868;2022-11-15T08:12:02;8.30;99.90
5172;DHT22;2605;49.770;9.868;2022-11-15T08:14:28;8.20;99.90
5172;DHT22;2605;49.770;9.868;2022-11-15T08:16:54;8.20;99.90
5172;DHT22;2605;49.770;9.868;2022-11-15T08:19:20;8.20;99.90
5172;DHT22;2605;49.770;9.868;2022-11-15T08:21:45;8.10;99.90
5172;DHT22;2605;49.770;9.868;2022-11-15T08:24:11;8.00;99.90
5172;DHT22;2605;49.770;9.868;2022-11-15T08:26:36;8.00;99.90
5172;DHT22;2605;49.770;9.868;2022-11-15T08:29:02;8.00;99.90
5172;DHT22;2605;49.770;9.868;2022-11-15T08:31:28;7.90;99.90
5172;DHT22;2605;49.770;9.868;2022-11-15T08:33:53;7.90;99.90
5172;DHT22;2605;49.770;9.868;2022-11-15T08:36:19;7.90;99.90
5172;DHT22;2605;49.770;9.868;2022-11-15T08:38:45;8.00;99.90
5172;DHT22;2605;49.770;9.868;2022-11-15T08:41:15;8.10;99.90
5172;DHT22;2605;49.770;9.868;2022-11-15T08:43:42;8.20;99.90
5172;DHT22;2605;49.770;9.868;2022-11-15T08:46:11;8.40;99.90
5172;DHT22;2605;49.770;9.868;2022-11-15T08:48:37;8.60;99.90
5172;DHT22;2605;49.770;9.868;2022-11-15T08:51:03;8.70;99.90
5172;DHT22;2605;49.770;9.868;2022-11-15T08:53:31;8.80;99.90
5172;DHT22;2605;49.770;9.868;2022-11-15T08:55:56;8.90;99.90
5172;DHT22;2605;49.770;9.868;2022-11-15T08:58:22;9.00;99.90
5172;DHT22;2605;49.770;9.868;2022-11-15T09:00:48;9.10;99.90
5172;DHT22;2605;49.770;9.868;2022-11-15T09:03:13;9.20;99.90
5172;DHT22;2605;49.770;9.868;2022-11-15T09:05:39;9.30;99.90
5172;DHT22;2605;49.770;9.868;2022-11-15T09:08:05;9.40;99.90
5172;DHT22;2605;49.770;9.868;2022-11-15T09:10:30;9.50;99.90
5172;DHT22;2605;49.770;9.868;2022-11-15T09:12:59;9.60;99.90
5172;DHT22;2605;49.770;9.868;2022-11-15T09:15:24;9.70;99.90
5172;DHT22;2605;49.770;9.868;2022-11-15T09:17:50;9.70;99.90
5172;DHT22;2605;49.770;9.868;2022-11-15T09:20:15;9.80;99.90
5172;DHT22;2605;49.770;9.868;2022-11-15T09:22:41;9.90;99.90
5172;DHT22;2605;49.770;9.868;2022-11-15T09:25:07;10.10;99.90
5172;DHT22;2605;49.770;9.868;2022-11-15T09:27:33;10.20;99.90
5172;DHT22;2605;49.770;9.868;2022-11-15T09:29:58;10.20;99.90
5172;DHT22;2605;49.770;9.868;2022-11-15T09:32:28;10.30;99.90
5172;DHT22;2605;49.770;9.868;2022-11-15T09:34:53;10.40;99.90
5172;DHT22;2605;49.770;9.868;2022-11-15T09:37:19;10.70;99.90
5172;DHT22;2605;49.770;9.868;2022-11-15T09:39:44;10.80;99.90
5172;DHT22;2605;49.770;9.868;2022-11-15T09:42:45;11.00;99.90
5172;DHT22;2605;49.770;9.868;2022-11-15T09:45:32;11.10;99.90
5172;DHT22;2605;49.770;9.868;2022-11-15T09:48:19;11.10;99.90
5172;DHT22;2605;49.770;9.868;2022-11-15T09:50:49;11.40;99.90
5172;DHT22;2605;49.770;9.868;2022-11-15T09:53:26;11.40;99.90
5172;DHT22;2605;49.770;9.868;2022-11-15T09:56:02;11.40;99.90
5172;DHT22;2605;49.770;9.868;2022-11-15T09:58:36;11.60;99.90
5172;DHT22;2605;49.770;9.868;2022-11-15T10:01:08;11.70;99.90
5172;DHT22;2605;49.770;9.868;2022-11-15T10:03:39;11.70;99.90
5172;DHT22;2605;49.770;9.868;2022-11-15T10:06:10;11.80;99.90
5172;DHT22;2605;49.770;9.868;2022-11-15T10:09:01;11.80;99.90
5172;DHT22;2605;49.770;9.868;2022-11-15T10:11:31;11.90;99.90
5172;DHT22;2605;49.770;9.868;2022-11-15T10:14:01;12.10;99.90
5172;DHT22;2605;49.770;9.868;2022-11-15T10:22:31;12.80;99.90
5172;DHT22;2605;49.770;9.868;2022-11-15T10:27:29;13.20;99.90
5172;DHT22;2605;49.770;9.868;2022-11-15T10:29:55;13.50;99.90
5172;DHT22;2605;49.770;9.868;2022-11-15T10:32:21;13.80;99.90
5172;DHT22;2605;49.770;9.868;2022-11-15T10:34:48;14.00;99.90
5172;DHT22;2605;49.770;9.868;2022-11-15T10:37:14;14.00;99.90
5172;DHT22;2605;49.770;9.868;2022-11-15T10:40:20;14.20;99.90
5172;DHT22;2605;49.770;9.868;2022-11-15T10:45:36;14.50;99.90
5172;DHT22;2605;49.770;9.868;2022-11-15T10:50:47;14.80;99.90
5172;DHT22;2605;49.770;9.868;2022-11-15T10:53:32;14.90;99.90
5172;DHT22;2605;49.770;9.868;2022-11-15T10:56:02;15.00;99.90
5172;DHT22;2605;49.770;9.868;2022-11-15T10:58:36;15.20;99.90
5172;DHT22;2605;49.770;9.868;2022-11-15T11:01:44;15.10;99.90
5172;DHT22;2605;49.770;9.868;2022-11-15T11:04:10;15.20;99.90
5172;DHT22;2605;49.770;9.868;2022-11-15T11:06:56;15.20;99.90
5172;DHT22;2605;49.770;9.868;2022-11-15T11:11:53;15.40;99.90
5172;DHT22;2605;49.770;9.868;2022-11-15T11:14:27;15.40;99.90
5172;DHT22;2605;49.770;9.868;2022-11-15T11:17:21;15.50;99.90
5172;DHT22;2605;49.770;9.868;2022-11-15T11:20:00;15.40;99.90
5172;DHT22;2605;49.770;9.868;2022-11-15T11:22:49;15.50;99.90
5172;DHT22;2605;49.770;9.868;2022-11-15T11:33:49;15.60;99.90
5172;DHT22;2605;49.770;9.868;2022-11-15T11:36:27;15.60;99.90
5172;DHT22;2605;49.770;9.868;2022-11-15T11:39:34;15.80;99.90
5172;DHT22;2605;49.770;9.868;2022-11-15T11:48:13;16.00;99.90
5172;DHT22;2605;49.770;9.868;2022-11-15T11:50:40;15.90;99.90
5172;DHT22;2605;49.770;9.868;2022-11-15T11:53:19;16.00;99.90
5172;DHT22;2605;49.770;9.868;2022-11-15T11:55:53;16.10;99.90
5172;DHT22;2605;49.770;9.868;2022-11-15T11:58:41;16.20;99.90
5172;DHT22;2605;49.770;9.868;2022-11-15T12:01:16;16.20;99.90
5172;DHT22;2605;49.770;9.868;2022-11-15T12:07:14;16.50;99.90
5172;DHT22;2605;49.770;9.868;2022-11-15T12:09:51;16.40;99.90
5172;DHT22;2605;49.770;9.868;2022-11-15T12:15:16;16.30;99.90
5172;DHT22;2605;49.770;9.868;2022-11-15T12:17:42;16.40;99.90
5172;DHT22;2605;49.770;9.868;2022-11-15T12:20:30;16.50;99.90
5172;DHT22;2605;49.770;9.868;2022-11-15T12:23:19;16.60;99.90
5172;DHT22;2605;49.770;9.868;2022-11-15T12:26:00;16.60;99.90
5172;DHT22;2605;49.770;9.868;2022-11-15T12:28:45;16.20;99.90
5172;DHT22;2605;49.770;9.868;2022-11-15T12:31:24;15.90;99.90
5172;DHT22;2605;49.770;9.868;2022-11-15T12:33:56;15.80;99.90
5172;DHT22;2605;49.770;9.868;2022-11-15T12:41:25;15.60;99.90
5172;DHT22;2605;49.770;9.868;2022-11-15T12:43:51;15.50;99.90
5172;DHT22;2605;49.770;9.868;2022-11-15T12:59:52;15.90;99.90
5172;DHT22;2605;49.770;9.868;2022-11-15T13:02:22;15.90;99.90
5172;DHT22;2605;49.770;9.868;2022-11-15T13:04:50;15.90;99.90
5172;DHT22;2605;49.770;9.868;2022-11-15T13:10:03;15.70;99.90
5172;DHT22;2605;49.770;9.868;2022-11-15T13:17:45;15.50;99.90
5172;DHT22;2605;49.770;9.868;2022-11-15T13:30:52;15.50;99.90
5172;DHT22;2605;49.770;9.868;2022-11-15T13:33:24;15.30;99.90
5172;DHT22;2605;49.770;9.868;2022-11-15T13:35:54;15.30;99.90
5172;DHT22;2605;49.770;9.868;2022-11-15T13:40:50;15.30;99.90
5172;DHT22;2605;49.770;9.868;2022-11-15T13:46:13;15.30;99.90
5172;DHT22;2605;49.770;9.868;2022-11-15T13:48:40;15.30;99.90
5172;DHT22;2605;49.770;9.868;2022-11-15T13:51:27;15.20;99.90
5172;DHT22;2605;49.770;9.868;2022-11-15T13:56:27;15.10;99.90
5172;DHT22;2605;49.770;9.868;2022-11-15T13:58:54;15.10;99.90
5172;DHT22;2605;49.770;9.868;2022-11-15T14:01:21;15.20;99.90
5172;DHT22;2605;49.770;9.868;2022-11-15T14:03:53;15.20;99.90
5172;DHT22;2605;49.770;9.868;2022-11-15T14:06:22;15.20;99.90
5172;DHT22;2605;49.770;9.868;2022-11-15T14:11:25;15.30;99.90
5172;DHT22;2605;49.770;9.868;2022-11-15T14:16:48;15.10;99.90
5172;DHT22;2605;49.770;9.868;2022-11-15T14:22:23;14.90;99.90
5172;DHT22;2605;49.770;9.868;2022-11-15T14:25:24;14.80;99.90
5172;DHT22;2605;49.770;9.868;2022-11-15T14:30:33;14.60;99.90
5172;DHT22;2605;49.770;9.868;2022-11-15T14:32:59;14.50;99.90
5172;DHT22;2605;49.770;9.868;2022-11-15T14:35:25;14.40;99.90
5172;DHT22;2605;49.770;9.868;2022-11-15T14:37:50;14.30;99.90
5172;DHT22;2605;49.770;9.868;2022-11-15T14:40:19;14.30;99.90
5172;DHT22;2605;49.770;9.868;2022-11-15T14:42:47;14.20;99.90
5172;DHT22;2605;49.770;9.868;2022-11-15T14:45:15;14.10;99.90
5172;DHT22;2605;49.770;9.868;2022-11-15T14:47:42;14.00;99.90
5172;DHT22;2605;49.770;9.868;2022-11-15T14:50:21;13.80;99.90
5172;DHT22;2605;49.770;9.868;2022-11-15T14:52:47;13.70;99.90
5172;DHT22;2605;49.770;9.868;2022-11-15T14:55:28;13.50;99.90
5172;DHT22;2605;49.770;9.868;2022-11-15T14:57:55;13.30;99.90
5172;DHT22;2605;49.770;9.868;2022-11-15T15:00:21;13.20;99.90
5172;DHT22;2605;49.770;9.868;2022-11-15T15:02:48;13.10;99.90
5172;DHT22;2605;49.770;9.868;2022-11-15T15:08:01;12.90;99.90
5172;DHT22;2605;49.770;9.868;2022-11-15T15:10:31;12.80;99.90
5172;DHT22;2605;49.770;9.868;2022-11-15T15:12:57;12.70;99.90
5172;DHT22;2605;49.770;9.868;2022-11-15T15:15:32;12.70;99.90
5172;DHT22;2605;49.770;9.868;2022-11-15T15:17:58;12.60;99.90
5172;DHT22;2605;49.770;9.868;2022-11-15T15:20:24;12.50;99.90
5172;DHT22;2605;49.770;9.868;2022-11-15T15:22:49;12.50;99.90
5172;DHT22;2605;49.770;9.868;2022-11-15T15:25:28;12.50;99.90
5172;DHT22;2605;49.770;9.868;2022-11-15T15:27:54;12.50;99.90
5172;DHT22;2605;49.770;9.868;2022-11-15T15:30:21;12.40;99.90
5172;DHT22;2605;49.770;9.868;2022-11-15T15:32:46;12.40;99.90
5172;DHT22;2605;49.770;9.868;2022-11-15T15:35:13;12.30;99.90
5172;DHT22;2605;49.770;9.868;2022-11-15T15:37:39;12.30;99.90
5172;DHT22;2605;49.770;9.868;2022-11-15T15:40:17;12.20;99.90
5172;DHT22;2605;49.770;9.868;2022-11-15T15:42:43;12.20;99.90
5172;DHT22;2605;49.770;9.868;2022-11-15T15:45:10;12.20;99.90
5172;DHT22;2605;49.770;9.868;2022-11-15T15:47:36;12.10;99.90
5172;DHT22;2605;49.770;9.868;2022-11-15T15:50:02;12.10;99.90
5172;DHT22;2605;49.770;9.868;2022-11-15T15:52:27;12.00;99.90
5172;DHT22;2605;49.770;9.868;2022-11-15T15:54:53;12.00;99.90
5172;DHT22;2605;49.770;9.868;2022-11-15T15:57:18;12.00;99.90
5172;DHT22;2605;49.770;9.868;2022-11-15T15:59:44;12.00;99.90
5172;DHT22;2605;49.770;9.868;2022-11-15T16:02:12;12.00;99.90
5172;DHT22;2605;49.770;9.868;2022-11-15T16:04:39;12.00;99.90
5172;DHT22;2605;49.770;9.868;2022-11-15T16:07:04;12.00;99.90
5172;DHT22;2605;49.770;9.868;2022-11-15T16:09:30;12.00;99.90
5172;DHT22;2605;49.770;9.868;2022-11-15T16:12:14;11.90;99.90
5172;DHT22;2605;49.770;9.868;2022-11-15T16:14:42;11.90;99.90
5172;DHT22;2605;49.770;9.868;2022-11-15T16:17:14;11.90;99.90
5172;DHT22;2605;49.770;9.868;2022-11-15T16:19:42;11.90;99.90
5172;DHT22;2605;49.770;9.868;2022-11-15T16:22:07;11.90;99.90
5172;DHT22;2605;49.770;9.868;2022-11-15T16:24:33;11.80;99.90
5172;DHT22;2605;49.770;9.868;2022-11-15T16:26:58;11.90;99.90
5172;DHT22;2605;49.770;9.868;2022-11-15T16:29:24;11.90;99.90
5172;DHT22;2605;49.770;9.868;2022-11-15T16:31:50;11.80;99.90
5172;DHT22;2605;49.770;9.868;2022-11-15T16:34:16;11.80;99.90
5172;DHT22;2605;49.770;9.868;2022-11-15T16:36:41;11.80;99.90
5172;DHT22;2605;49.770;9.868;2022-11-15T16:39:12;11.70;99.90
5172;DHT22;2605;49.770;9.868;2022-11-15T16:41:44;11.70;99.90
5172;DHT22;2605;49.770;9.868;2022-11-15T16:44:15;11.70;99.90
5172;DHT22;2605;49.770;9.868;2022-11-15T16:46:41;11.70;99.90
5172;DHT22;2605;49.770;9.868;2022-11-15T16:49:14;11.70;99.90
5172;DHT22;2605;49.770;9.868;2022-11-15T16:51:40;11.70;99.90
5172;DHT22;2605;49.770;9.868;2022-11-15T16:54:06;11.70;99.90
5172;DHT22;2605;49.770;9.868;2022-11-15T16:56:32;11.70;99.90
5172;DHT22;2605;49.770;9.868;2022-11-15T16:58:59;11.60;99.90
5172;DHT22;2605;49.770;9.868;2022-11-15T17:01:27;11.60;99.90
5172;DHT22;2605;49.770;9.868;2022-11-15T17:03:53;11.60;99.90
5172;DHT22;2605;49.770;9.868;2022-11-15T17:06:19;11.60;99.90
5172;DHT22;2605;49.770;9.868;2022-11-15T17:08:46;11.60;99.90
5172;DHT22;2605;49.770;9.868;2022-11-15T17:11:17;11.50;99.90
5172;DHT22;2605;49.770;9.868;2022-11-15T17:13:42;11.50;99.90
5172;DHT22;2605;49.770;9.868;2022-11-15T17:16:11;11.50;99.90
5172;DHT22;2605;49.770;9.868;2022-11-15T17:18:38;11.50;99.90
5172;DHT22;2605;49.770;9.868;2022-11-15T17:21:09;11.50;99.90
5172;DHT22;2605;49.770;9.868;2022-11-15T17:23:36;11.50;99.90
5172;DHT22;2605;49.770;9.868;2022-11-15T17:26:02;11.50;99.90
5172;DHT22;2605;49.770;9.868;2022-11-15T17:28:32;11.50;99.90
5172;DHT22;2605;49.770;9.868;2022-11-15T17:30:59;11.40;99.90
5172;DHT22;2605;49.770;9.868;2022-11-15T17:33:25;11.40;99.90
5172;DHT22;2605;49.770;9.868;2022-11-15T17:35:55;11.40;99.90
5172;DHT22;2605;49.770;9.868;2022-11-15T17:38:21;11.40;99.90
5172;DHT22;2605;49.770;9.868;2022-11-15T17:40:46;11.40;99.90
5172;DHT22;2605;49.770;9.868;2022-11-15T17:43:12;11.30;99.90
5172;DHT22;2605;49.770;9.868;2022-11-15T17:45:40;11.30;99.90
5172;DHT22;2605;49.770;9.868;2022-11-15T17:48:06;11.30;99.90
5172;DHT22;2605;49.770;9.868;2022-11-15T17:50:32;11.20;99.90
5172;DHT22;2605;49.770;9.868;2022-11-15T17:52:58;11.20;99.90
5172;DHT22;2605;49.770;9.868;2022-11-15T17:55:24;11.20;99.90
5172;DHT22;2605;49.770;9.868;2022-11-15T17:57:50;11.20;99.90
5172;DHT22;2605;49.770;9.868;2022-11-15T18:00:15;11.20;99.90
5172;DHT22;2605;49.770;9.868;2022-11-15T18:02:43;11.20;99.90
5172;DHT22;2605;49.770;9.868;2022-11-15T18:05:09;11.20;99.90
5172;DHT22;2605;49.770;9.868;2022-11-15T18:07:34;11.20;99.90
5172;DHT22;2605;49.770;9.868;2022-11-15T18:10:00;11.10;99.90
5172;DHT22;2605;49.770;9.868;2022-11-15T18:12:25;11.10;99.90
5172;DHT22;2605;49.770;9.868;2022-11-15T18:14:51;11.10;99.90
5172;DHT22;2605;49.770;9.868;2022-11-15T18:17:16;11.10;99.90
5172;DHT22;2605;49.770;9.868;2022-11-15T18:19:43;11.10;99.90
5172;DHT22;2605;49.770;9.868;2022-11-15T18:22:08;11.10;99.90
5172;DHT22;2605;49.770;9.868;2022-11-15T18:24:35;11.00;99.90
5172;DHT22;2605;49.770;9.868;2022-11-15T18:27:04;11.00;99.90
5172;DHT22;2605;49.770;9.868;2022-11-15T18:29:30;11.00;99.90
5172;DHT22;2605;49.770;9.868;2022-11-15T18:31:57;11.00;99.90